createdAt,value
2022-12-06T00:01:34.936Z,102063.50
2022-12-06T00:04:07.894Z,102065.34
2022-12-06T00:06:41.657Z,102061.00
2022-12-06T00:09:17.864Z,102059.25
2022-12-06T00:11:46.246Z,102059.25
2022-12-06T00:14:15.553Z,102062.69
2022-12-06T00:16:44.023Z,102067.91
2022-12-06T00:19:15.606Z,102060.81
2022-12-06T00:21:45.070Z,102059.91
2022-12-06T00:24:16.294Z,102059.78
2022-12-06T00:26:48.153Z,102057.94
2022-12-06T00:29:19.614Z,102060.44
2022-12-06T00:31:48.610Z,102054.28
2022-12-06T00:34:18.616Z,102048.94
2022-12-06T00:36:47.813Z,102049.91
2022-12-06T00:39:18.388Z,102044.75
2022-12-06T00:41:46.936Z,102043.88
2022-12-06T00:44:15.516Z,102037.81
2022-12-06T00:46:43.886Z,102042.22
2022-12-06T00:49:13.851Z,102044.81
2022-12-06T00:51:43.503Z,102044.81
2022-12-06T00:54:16.158Z,102044.81
2022-12-06T00:56:45.202Z,102050.03
2022-12-06T00:59:13.457Z,102052.56
2022-12-06T01:01:42.922Z,102058.66
2022-12-06T01:04:11.446Z,102049.91
2022-12-06T01:06:40.101Z,102055.09
2022-12-06T01:09:15.231Z,102051.56
2022-12-06T01:11:43.600Z,102050.75
2022-12-06T01:14:11.909Z,102038.53
2022-12-06T01:16:40.402Z,102043.75
2022-12-06T01:19:09.194Z,102047.19
2022-12-06T01:21:37.401Z,102043.72
2022-12-06T01:24:06.293Z,102054.13
2022-12-06T01:26:36.921Z,102049.78
2022-12-06T01:29:05.356Z,102050.56
2022-12-06T01:31:38.738Z,102048.91
2022-12-06T01:34:08.593Z,102056.66
2022-12-06T01:36:36.762Z,102052.31
2022-12-06T01:39:10.333Z,102059.25
2022-12-06T01:41:40.679Z,102059.31
2022-12-06T01:44:40.994Z,102061.88
2022-12-06T01:47:16.636Z,102055.78
2022-12-06T01:49:49.042Z,102048.78
2022-12-06T01:52:18.285Z,102047.97
2022-12-06T01:54:46.897Z,102042.69
2022-12-06T01:57:18.850Z,102046.13
2022-12-06T01:59:47.768Z,102040.00
2022-12-06T02:02:16.176Z,102039.13
2022-12-06T02:04:45.659Z,102036.50
2022-12-06T02:07:14.211Z,102032.16
2022-12-06T02:09:43.476Z,102030.38
2022-12-06T02:12:14.881Z,102031.31
2022-12-06T02:14:48.422Z,102021.84
2022-12-06T02:17:39.977Z,102028.78
2022-12-06T02:20:27.671Z,102027.00
2022-12-06T02:23:57.149Z,102027.84
2022-12-06T02:26:37.414Z,102024.28
2022-12-06T02:30:08.881Z,102016.41
2022-12-06T02:32:54.466Z,102018.09
2022-12-06T02:35:32.663Z,102019.78
2022-12-06T02:38:13.016Z,102011.94
2022-12-06T02:40:47.868Z,102011.97
2022-12-06T02:43:20.139Z,102018.09
2022-12-06T02:45:53.689Z,102015.41
2022-12-06T02:48:26.966Z,102009.34
2022-12-06T02:51:00.512Z,102004.13
2022-12-06T02:53:32.125Z,102006.66
2022-12-06T02:56:00.677Z,101999.56
2022-12-06T02:58:28.866Z,102003.97
2022-12-06T03:00:58.932Z,102000.44
2022-12-06T03:04:12.420Z,102000.34
2022-12-06T03:06:54.914Z,102006.41
2022-12-06T03:09:50.521Z,102003.78
2022-12-06T03:12:31.790Z,101996.78
2022-12-06T03:15:10.810Z,102000.22
2022-12-06T03:17:45.972Z,102005.44
2022-12-06T03:20:22.408Z,102009.78
2022-12-06T03:22:55.349Z,102002.00
2022-12-06T03:25:24.073Z,102004.59
2022-12-06T03:27:56.267Z,102011.59
2022-12-06T03:30:25.345Z,102012.41
2022-12-06T03:32:54.075Z,102014.19
2022-12-06T03:35:29.935Z,102015.00
2022-12-06T03:38:08.956Z,102011.44
2022-12-06T03:40:41.411Z,102002.75
2022-12-06T03:43:09.983Z,102009.72
2022-12-06T03:45:44.708Z,102008.03
2022-12-06T03:48:16.853Z,102008.03
2022-12-06T03:50:55.546Z,102010.63
2022-12-06T03:53:26.712Z,102008.03
2022-12-06T03:55:54.920Z,102010.63
2022-12-06T03:58:23.150Z,102006.25
2022-12-06T04:00:51.341Z,101998.38
2022-12-06T04:03:19.603Z,101997.44
2022-12-06T04:05:49.211Z,101999.22
2022-12-06T04:08:17.490Z,101993.13
2022-12-06T04:10:45.801Z,101992.19
2022-12-06T04:13:19.335Z,101992.97
2022-12-06T04:15:48.242Z,101991.16
2022-12-06T04:18:17.032Z,101983.31
2022-12-06T04:21:07.235Z,101990.97
2022-12-06T04:23:37.759Z,101983.06
2022-12-06T04:26:09.232Z,101985.66
2022-12-06T04:28:55.155Z,101982.22
2022-12-06T04:31:41.450Z,101978.81
2022-12-06T04:34:27.284Z,101977.00
2022-12-06T04:37:15.157Z,101980.56
2022-12-06T04:39:43.911Z,101978.91
2022-12-06T04:42:30.720Z,101976.38
2022-12-06T04:44:58.924Z,101964.25
2022-12-06T04:47:27.441Z,101965.28
2022-12-06T04:49:56.121Z,101968.81
2022-12-06T04:52:25.664Z,101955.66
2022-12-06T04:54:55.214Z,101955.56
2022-12-06T04:57:23.402Z,101959.66
2022-12-06T04:59:51.529Z,101949.84
2022-12-06T05:02:19.882Z,101952.28
2022-12-06T05:04:48.072Z,101958.16
2022-12-06T05:07:16.331Z,101963.25
2022-12-06T05:09:45.845Z,101951.84
2022-12-06T05:12:14.171Z,101957.91
2022-12-06T05:14:42.334Z,101964.00
2022-12-06T05:17:10.561Z,101946.63
2022-12-06T05:19:49.660Z,101943.19
2022-12-06T05:22:17.850Z,101945.78
2022-12-06T05:24:47.399Z,101948.53
2022-12-06T05:27:15.826Z,101946.88
2022-12-06T05:29:44.000Z,101953.03
2022-12-06T05:32:12.161Z,101950.44
2022-12-06T05:34:40.445Z,101949.59
2022-12-06T05:37:08.845Z,101945.22
2022-12-06T05:39:37.038Z,101950.34
2022-12-06T05:42:06.804Z,101946.81
2022-12-06T05:44:35.022Z,101955.38
2022-12-06T05:47:03.297Z,101951.84
2022-12-06T05:49:31.530Z,101949.94
2022-12-06T05:52:03.788Z,101958.28
2022-12-06T05:54:32.394Z,101962.34
2022-12-06T05:57:00.632Z,101953.41
2022-12-06T05:59:30.483Z,101959.31
2022-12-06T06:01:58.757Z,101954.88
2022-12-06T06:04:27.017Z,101962.75
2022-12-06T06:06:55.192Z,101967.94
2022-12-06T06:09:24.278Z,101967.94
2022-12-06T06:11:52.415Z,101964.41
2022-12-06T06:14:20.752Z,101965.09
2022-12-06T06:16:50.470Z,101957.94
2022-12-06T06:19:19.284Z,101963.66
2022-12-06T06:21:49.170Z,101964.22
2022-12-06T06:24:17.537Z,101962.22
2022-12-06T06:26:45.753Z,101964.63
2022-12-06T06:29:14.069Z,101973.19
2022-12-06T06:31:42.379Z,101974.91
2022-12-06T06:34:11.922Z,101975.03
2022-12-06T06:36:45.555Z,101976.78
2022-12-06T06:39:14.400Z,101983.66
2022-12-06T06:41:42.606Z,101981.75
2022-12-06T06:44:10.741Z,101982.34
2022-12-06T06:46:39.159Z,101977.81
2022-12-06T06:49:07.567Z,101981.09
2022-12-06T06:51:37.121Z,101984.38
2022-12-06T06:54:05.504Z,101979.84
2022-12-06T06:56:33.717Z,101981.28
2022-12-06T06:59:01.844Z,101968.66
2022-12-06T07:01:30.122Z,101975.03
2022-12-06T07:03:58.673Z,101964.97
2022-12-06T07:06:26.922Z,101972.34
2022-12-06T07:08:56.861Z,101969.47
2022-12-06T07:11:25.007Z,101966.72
2022-12-06T07:13:53.216Z,101953.63
2022-12-06T07:16:21.556Z,101959.34
2022-12-06T07:18:49.887Z,101966.72
2022-12-06T07:21:18.397Z,101964.47
2022-12-06T07:23:46.573Z,101958.88
2022-12-06T07:26:18.879Z,101967.16
2022-12-06T07:28:49.731Z,101958.22
2022-12-06T07:31:20.830Z,101967.25
2022-12-06T07:33:50.234Z,101964.19
2022-12-06T07:36:18.501Z,101970.94
2022-12-06T07:38:50.471Z,101968.91
2022-12-06T07:41:40.569Z,101965.22
2022-12-06T07:44:28.966Z,101970.09
2022-12-06T07:46:57.862Z,101964.63
2022-12-06T07:49:26.300Z,101976.44
2022-12-06T07:51:55.926Z,101970.16
2022-12-06T07:54:24.994Z,101961.25
2022-12-06T07:56:56.183Z,101968.72
2022-12-06T07:59:24.729Z,101976.16
2022-12-06T08:01:53.573Z,101980.22
2022-12-06T08:04:22.488Z,101975.78
2022-12-06T08:06:50.838Z,101974.91
2022-12-06T08:09:19.714Z,101978.38
2022-12-06T08:11:47.923Z,101974.91
2022-12-06T08:14:17.488Z,101974.91
2022-12-06T08:16:45.650Z,101975.22
2022-12-06T08:19:13.876Z,101970.34
2022-12-06T08:21:42.086Z,101965.56
2022-12-06T08:24:10.585Z,101967.56
2022-12-06T08:26:38.862Z,101973.16
2022-12-06T08:29:07.228Z,101969.94
2022-12-06T08:31:37.048Z,101971.88
2022-12-06T08:34:05.866Z,101972.78
2022-12-06T08:36:34.174Z,101965.09
2022-12-06T08:39:02.387Z,101958.28
2022-12-06T08:41:48.526Z,101951.47
2022-12-06T08:44:18.469Z,101956.72
2022-12-06T08:46:48.333Z,101960.34
2022-12-06T08:49:18.113Z,101964.06
2022-12-06T08:51:47.895Z,101966.13
2022-12-06T08:54:19.813Z,101967.91
2022-12-06T08:56:48.242Z,101952.28
2022-12-06T08:59:16.629Z,101958.63
2022-12-06T09:01:47.713Z,101966.53
2022-12-06T09:04:16.546Z,101965.56
2022-12-06T09:06:46.468Z,101966.53
2022-12-06T09:09:16.816Z,101960.59
2022-12-06T09:11:46.707Z,101965.34
2022-12-06T09:14:21.426Z,101974.59
2022-12-06T09:16:53.745Z,101962.25
2022-12-06T09:19:22.471Z,101968.81
2022-12-06T09:21:50.629Z,101961.34
2022-12-06T09:24:20.215Z,101967.69
2022-12-06T09:26:49.468Z,101962.59
2022-12-06T09:29:18.694Z,101966.06
2022-12-06T09:31:47.631Z,101965.06
2022-12-06T09:34:18.004Z,101957.78
2022-12-06T09:36:50.279Z,101961.81
2022-12-06T09:39:22.918Z,101956.50
2022-12-06T09:42:41.659Z,101952.91
2022-12-06T09:45:46.505Z,101950.31
2022-12-06T09:48:56.800Z,101946.00
2022-12-06T09:51:45.778Z,101947.91
2022-12-06T09:54:33.850Z,101951.59
2022-12-06T09:57:08.967Z,101944.00
2022-12-06T09:59:48.672Z,101945.16
2022-12-06T10:02:36.004Z,101948.25
2022-12-06T10:05:31.429Z,101945.97
2022-12-06T10:08:14.725Z,101938.25
2022-12-06T10:10:57.551Z,101941.94
2022-12-06T10:13:43.532Z,101950.75
2022-12-06T10:16:23.448Z,101940.47
2022-12-06T10:19:08.695Z,101934.59
2022-12-06T10:21:53.823Z,101930.34
2022-12-06T10:24:45.916Z,101927.88
2022-12-06T10:27:22.600Z,101926.34
2022-12-06T10:29:58.102Z,101934.50
2022-12-06T10:32:52.041Z,101928.66
2022-12-06T10:35:33.876Z,101928.91
2022-12-06T10:38:13.871Z,101929.97
2022-12-06T10:40:55.552Z,101924.97
2022-12-06T10:43:30.681Z,101926.16
2022-12-06T10:46:28.896Z,101917.00
2022-12-06T10:49:07.427Z,101918.41
2022-12-06T10:51:43.170Z,101915.88
2022-12-06T10:54:24.726Z,101908.28
2022-12-06T10:56:57.973Z,101908.19
2022-12-06T10:59:34.194Z,101904.53
2022-12-06T11:02:27.824Z,101896.41
2022-12-06T11:05:03.178Z,101898.50
2022-12-06T11:07:39.517Z,101896.25
2022-12-06T11:10:19.956Z,101903.50
2022-12-06T11:12:55.466Z,101902.06
2022-12-06T11:15:28.793Z,101903.22
2022-12-06T11:18:06.414Z,101899.19
2022-12-06T11:20:40.689Z,101902.06
2022-12-06T11:23:19.093Z,101909.28
2022-12-06T11:26:11.247Z,101903.31
2022-12-06T11:28:44.038Z,101897.31
2022-12-06T11:31:24.004Z,101896.38
2022-12-06T11:33:53.712Z,101892.13
2022-12-06T11:36:23.648Z,101887.19
2022-12-06T11:38:52.105Z,101885.66
2022-12-06T11:41:25.333Z,101888.28
2022-12-06T11:43:56.252Z,101887.34
2022-12-06T11:46:25.419Z,101885.63
2022-12-06T11:48:54.902Z,101887.19
2022-12-06T11:51:26.427Z,101873.84
2022-12-06T11:54:09.046Z,101872.72
2022-12-06T11:56:39.773Z,101873.44
2022-12-06T11:59:24.804Z,101868.88
2022-12-06T12:01:56.069Z,101869.63
2022-12-06T12:04:29.288Z,101865.13
2022-12-06T12:07:01.431Z,101855.56
2022-12-06T12:09:34.523Z,101865.19
2022-12-06T12:12:06.573Z,101857.28
2022-12-06T12:14:44.172Z,101858.75
2022-12-06T12:17:20.600Z,101855.13
2022-12-06T12:19:52.857Z,101854.19
2022-12-06T12:22:34.532Z,101853.34
2022-12-06T12:25:18.846Z,101846.44
2022-12-06T12:27:52.115Z,101836.13
2022-12-06T12:30:36.289Z,101832.81
2022-12-06T12:33:21.601Z,101820.78
2022-12-06T12:35:56.085Z,101825.28
2022-12-06T12:38:35.145Z,101830.75
2022-12-06T12:41:12.573Z,101831.81
2022-12-06T12:43:41.418Z,101826.84
2022-12-06T12:46:23.033Z,101822.69
2022-12-06T12:48:53.030Z,101823.66
2022-12-06T12:51:28.623Z,101824.78
2022-12-06T12:53:59.986Z,101832.13
2022-12-06T12:56:30.173Z,101836.88
2022-12-06T12:58:58.912Z,101829.34
2022-12-06T13:01:40.242Z,101833.91
2022-12-06T13:04:32.558Z,101821.00
2022-12-06T13:07:04.972Z,101815.94
2022-12-06T13:09:47.005Z,101816.00
2022-12-06T13:12:22.128Z,101808.22
2022-12-06T13:14:57.177Z,101809.13
2022-12-06T13:17:30.331Z,101817.06
2022-12-06T13:19:58.850Z,101806.97
2022-12-06T13:22:33.273Z,101809.81
2022-12-06T13:25:06.341Z,101803.81
2022-12-06T13:27:40.322Z,101806.38
2022-12-06T13:30:17.199Z,101805.47
2022-12-06T13:32:52.022Z,101805.44
2022-12-06T13:35:27.470Z,101807.09
2022-12-06T13:37:58.241Z,101806.91
2022-12-06T13:40:48.222Z,101801.56
2022-12-06T13:43:59.149Z,101806.81
2022-12-06T13:46:33.428Z,101804.19
2022-12-06T13:49:27.774Z,101793.72
2022-12-06T13:51:55.946Z,101796.34
2022-12-06T13:54:42.134Z,101803.25
2022-12-06T13:57:31.823Z,101796.91
2022-12-06T14:00:00.896Z,101798.47
2022-12-06T14:02:54.156Z,101790.53
2022-12-06T14:08:38.036Z,101792.81
2022-12-06T14:11:19.894Z,101796.28
2022-12-06T14:13:52.449Z,101790.94
2022-12-06T14:16:30.664Z,101788.25
2022-12-06T14:18:59.014Z,101795.13
2022-12-06T14:21:34.832Z,101783.66
2022-12-06T14:24:04.420Z,101787.00
2022-12-06T14:26:35.292Z,101782.47
2022-12-06T14:29:03.924Z,101784.78
2022-12-06T14:31:40.246Z,101781.78
2022-12-06T14:34:29.061Z,101778.75
2022-12-06T14:37:00.260Z,101778.50
2022-12-06T14:39:31.782Z,101773.09
2022-12-06T14:42:19.483Z,101768.63
2022-12-06T14:44:55.014Z,101769.25
2022-12-06T14:47:25.669Z,101763.03
2022-12-06T14:50:15.681Z,101766.22
2022-12-06T14:53:03.859Z,101763.47
2022-12-06T14:55:54.425Z,101770.38
2022-12-06T14:58:25.581Z,101766.09
2022-12-06T15:00:56.974Z,101757.41
2022-12-06T15:03:33.178Z,101765.28
2022-12-06T15:06:15.876Z,101760.88
2022-12-06T15:08:51.826Z,101757.41
2022-12-06T15:11:50.950Z,101763.47
2022-12-06T15:14:22.134Z,101760.88
2022-12-06T15:17:05.487Z,101753.06
2022-12-06T15:19:36.371Z,101747.84
2022-12-06T15:22:05.245Z,101751.38
2022-12-06T15:24:35.080Z,101746.09
2022-12-06T15:27:03.272Z,101754.84
2022-12-06T15:29:31.619Z,101747.03
2022-12-06T15:32:02.534Z,101746.09
2022-12-06T15:34:35.023Z,101746.09
2022-12-06T15:37:36.921Z,101748.66
2022-12-06T15:39:53.999Z,101749.50
2022-12-06T15:42:25.298Z,101736.47
2022-12-06T15:44:53.583Z,101726.88
2022-12-06T15:47:21.815Z,101720.72
2022-12-06T15:49:51.866Z,101725.06
2022-12-06T15:52:23.478Z,101713.66
2022-12-06T15:54:53.313Z,101714.44
2022-12-06T15:57:21.604Z,101722.16
2022-12-06T15:59:49.813Z,101722.91
2022-12-06T16:02:19.791Z,101715.72
2022-12-06T16:04:50.946Z,101707.69
2022-12-06T16:07:19.846Z,101710.81
2022-12-06T16:09:49.134Z,101715.72
2022-12-06T16:12:19.112Z,101716.28
2022-12-06T16:14:47.302Z,101716.84
2022-12-06T16:17:15.742Z,101722.69
2022-12-06T16:20:12.833Z,101717.25
2022-12-06T16:22:58.486Z,101720.50
2022-12-06T16:25:26.672Z,101716.03
2022-12-06T16:27:56.614Z,101715.22
2022-12-06T16:30:33.899Z,101715.28
2022-12-06T16:33:07.385Z,101716.31
2022-12-06T16:35:36.203Z,101715.59
2022-12-06T16:38:04.426Z,101712.31
2022-12-06T16:40:33.884Z,101714.28
2022-12-06T16:43:03.635Z,101709.22
2022-12-06T16:45:35.274Z,101711.16
2022-12-06T16:48:03.665Z,101712.13
2022-12-06T16:50:33.803Z,101708.78
2022-12-06T16:53:02.169Z,101701.91
2022-12-06T16:55:30.639Z,101699.44
2022-12-06T16:57:59.171Z,101708.16
2022-12-06T17:00:28.732Z,101699.50
2022-12-06T17:02:57.118Z,101695.97
2022-12-06T17:05:27.453Z,101696.81
2022-12-06T17:07:55.795Z,101696.72
2022-12-06T17:10:24.129Z,101699.16
2022-12-06T17:12:52.397Z,101692.88
2022-12-06T17:15:22.550Z,101704.91
2022-12-06T17:17:52.134Z,101700.50
2022-12-06T17:20:20.945Z,101688.31
2022-12-06T17:22:49.219Z,101688.22
2022-12-06T17:25:18.158Z,101693.28
2022-12-06T17:27:46.597Z,101696.53
2022-12-06T17:30:17.956Z,101693.63
2022-12-06T17:32:47.963Z,101695.91
2022-12-06T17:35:17.751Z,101698.34
2022-12-06T17:37:45.956Z,101701.63
2022-12-06T17:40:15.765Z,101702.78
2022-12-06T17:43:01.644Z,101695.22
2022-12-06T17:45:30.062Z,101692.91
2022-12-06T17:47:58.313Z,101694.88
2022-12-06T17:50:28.412Z,101693.34
2022-12-06T17:52:56.933Z,101690.09
2022-12-06T17:55:25.240Z,101693.72
2022-12-06T17:57:53.435Z,101692.06
2022-12-06T18:00:22.512Z,101682.56
2022-12-06T18:02:50.921Z,101690.25
2022-12-06T18:05:19.336Z,101687.66
2022-12-06T18:07:48.937Z,101683.34
2022-12-06T18:10:17.460Z,101680.72
2022-12-06T18:12:45.688Z,101681.72
2022-12-06T18:15:27.861Z,101677.47
2022-12-06T18:17:56.076Z,101670.53
2022-12-06T18:20:24.487Z,101670.53
2022-12-06T18:22:54.031Z,101662.78
2022-12-06T18:25:22.251Z,101670.66
2022-12-06T18:27:50.508Z,101671.53
2022-12-06T18:30:19.094Z,101675.88
2022-12-06T18:32:47.278Z,101676.75
2022-12-06T18:35:15.739Z,101671.59
2022-12-06T18:37:43.931Z,101674.28
2022-12-06T18:40:13.963Z,101677.03
2022-12-06T18:42:42.209Z,101684.03
2022-12-06T18:45:11.515Z,101683.19
2022-12-06T18:47:39.727Z,101687.63
2022-12-06T18:50:10.499Z,101682.50
2022-12-06T18:52:38.891Z,101684.31
2022-12-06T18:55:08.933Z,101685.25
2022-12-06T18:57:39.442Z,101687.13
2022-12-06T19:00:09.620Z,101682.00
2022-12-06T19:02:38.095Z,101676.78
2022-12-06T19:05:07.733Z,101672.47
2022-12-06T19:07:36.198Z,101675.91
2022-12-06T19:10:05.136Z,101670.72
2022-12-06T19:12:33.518Z,101679.47
2022-12-06T19:15:03.251Z,101689.03
2022-12-06T19:17:31.528Z,101683.81
2022-12-06T19:19:59.963Z,101677.78
2022-12-06T19:22:28.706Z,101683.81
2022-12-06T19:24:57.291Z,101686.41
2022-12-06T19:27:25.578Z,101681.13
2022-12-06T19:29:54.045Z,101690.75
2022-12-06T19:32:23.591Z,101675.03
2022-12-06T19:34:52.396Z,101681.03
2022-12-06T19:37:20.645Z,101683.59
2022-12-06T19:39:48.924Z,101686.13
2022-12-06T19:42:34.703Z,101680.94
2022-12-06T19:45:03.001Z,101684.38
2022-12-06T19:47:32.896Z,101671.38
2022-12-06T19:50:01.644Z,101665.22
2022-12-06T19:52:31.111Z,101659.06
2022-12-06T19:54:59.564Z,101651.06
2022-12-06T19:57:27.833Z,101657.94
2022-12-06T19:59:56.553Z,101660.47
2022-12-06T20:02:25.002Z,101650.78
2022-12-06T20:04:54.701Z,101648.09
2022-12-06T20:07:23.072Z,101654.09
2022-12-06T20:09:51.363Z,101658.50
2022-12-06T20:12:20.694Z,101658.59
2022-12-06T20:14:50.779Z,101655.16
2022-12-06T20:17:21.951Z,101656.91
2022-12-06T20:19:50.255Z,101649.09
2022-12-06T20:22:22.661Z,101655.16
2022-12-06T20:24:50.959Z,101644.63
2022-12-06T20:27:39.275Z,101649.84
2022-12-06T20:30:09.510Z,101652.41
2022-12-06T20:32:37.767Z,101663.72
2022-12-06T20:35:06.506Z,101656.78
2022-12-06T20:37:36.402Z,101650.69
2022-12-06T20:40:05.894Z,101645.38
2022-12-06T20:42:34.625Z,101640.00
2022-12-06T20:45:02.884Z,101649.41
2022-12-06T20:47:31.080Z,101643.13
2022-12-06T20:50:00.533Z,101640.22
2022-12-06T20:52:29.193Z,101637.31
2022-12-06T20:54:58.873Z,101636.94
2022-12-06T20:57:27.189Z,101638.38
2022-12-06T20:59:55.564Z,101631.97
2022-12-06T21:02:23.797Z,101643.03
2022-12-06T21:04:52.100Z,101627.19
2022-12-06T21:07:21.548Z,101627.00
2022-12-06T21:09:49.772Z,101631.97
2022-12-06T21:12:20.323Z,101636.13
2022-12-06T21:14:48.618Z,101640.50
2022-12-06T21:17:16.955Z,101642.47
2022-12-06T21:19:45.233Z,101638.44
2022-12-06T21:22:13.462Z,101649.91
2022-12-06T21:24:41.747Z,101640.53
2022-12-06T21:27:09.990Z,101645.06
2022-12-06T21:29:42.584Z,101643.47
2022-12-06T21:32:10.832Z,101639.16
2022-12-06T21:34:45.838Z,101628.69
2022-12-06T21:37:15.021Z,101632.94
2022-12-06T21:39:46.304Z,101635.25
2022-12-06T21:42:15.805Z,101640.00
2022-12-06T21:44:45.563Z,101635.41
2022-12-06T21:47:14.025Z,101625.59
2022-12-06T21:49:42.732Z,101632.38
2022-12-06T21:52:10.929Z,101628.59
2022-12-06T21:54:39.148Z,101633.75
2022-12-06T21:57:07.327Z,101625.91
2022-12-06T21:59:35.587Z,101621.53
2022-12-06T22:02:05.243Z,101629.09
2022-12-06T22:04:33.530Z,101637.38
2022-12-06T22:07:01.684Z,101632.69
2022-12-06T22:09:30.008Z,101628.09
2022-12-06T22:11:59.775Z,101626.91
2022-12-06T22:14:27.999Z,101627.50
2022-12-06T22:16:56.320Z,101631.66
2022-12-06T22:19:26.031Z,101635.72
2022-12-06T22:21:55.908Z,101633.91
2022-12-06T22:24:25.385Z,101633.91
2022-12-06T22:26:54.547Z,101633.91
2022-12-06T22:29:22.832Z,101638.16
2022-12-06T22:31:51.339Z,101637.19
2022-12-06T22:34:19.662Z,101629.28
2022-12-06T22:36:49.261Z,101630.88
2022-12-06T22:39:18.572Z,101636.69
2022-12-06T22:41:46.872Z,101626.91
2022-12-06T22:44:15.056Z,101627.59
2022-12-06T22:46:43.331Z,101627.50
2022-12-06T22:49:17.736Z,101627.38
2022-12-06T22:51:46.349Z,101638.56
2022-12-06T22:54:16.453Z,101635.97
2022-12-06T22:56:48.439Z,101627.38
2022-12-06T22:59:17.238Z,101627.50
2022-12-06T23:01:45.728Z,101625.97
2022-12-06T23:04:14.099Z,101620.00
2022-12-06T23:06:42.466Z,101626.28
2022-12-06T23:09:17.390Z,101629.06
2022-12-06T23:11:45.817Z,101630.91
2022-12-06T23:14:14.155Z,101621.63
2022-12-06T23:16:43.723Z,101626.13
2022-12-06T23:19:12.286Z,101619.97
2022-12-06T23:21:42.441Z,101619.72
2022-12-06T23:24:13.980Z,101617.75
2022-12-06T23:26:46.881Z,101610.63
2022-12-06T23:29:17.001Z,101616.28
2022-12-06T23:31:47.047Z,101613.31
2022-12-06T23:34:18.384Z,101611.22
2022-12-06T23:36:46.906Z,101602.28
2022-12-06T23:39:15.537Z,101599.44
2022-12-06T23:41:45.674Z,101602.66
2022-12-06T23:44:14.570Z,101605.00
2022-12-06T23:46:45.769Z,101607.34
2022-12-06T23:49:18.429Z,101603.75
2022-12-06T23:51:47.627Z,101601.84
2022-12-06T23:54:18.099Z,101600.81
2022-12-06T23:56:50.797Z,101598.19
2022-12-06T23:59:19.450Z,101594.63
